Pagrindinis puslapis
METAR-TAF:

METAR-TAF

Oro uostai :

Sharurah, Saudo Arabija

platuma: 17-28N, ilguma: 047-07E, Aukštis: 720 m

Dabartinis oras

Ataskaita buvo paskelbta 19 minutes, ne 22:00 UTC
Vėjas 8 kt iš Rytų/Šiaurės Rytų
Temperatūra 23°C
Drėgmė 44%
Slėgis 1016 hPa
Matomumas 10 km arba daugiau
nėra debesų žemiau 1500 m ir nėra kamuolinių lietaus debesų

METAR: OESH 022200Z 07008KT CAVOK 23/10 Q1016 NOSIG

Laikas: 01:19 (22:19 UTC)

Prognozė

Ataskaita buvo paskelbta 11 valandos ir 19 minutes, ne 11:00 UTC
Prognozė galioja nuo 02 metu 12 UTC su 03 metu 18 UTC
Vėjas 12 kt iš Rytų
Matomumas 10 km arba daugiau
nėra debesų žemiau 1500 m ir nėra kamuolinių lietaus debesų
Tapsmas
nuo 02 metu 20 UTC su 02 metu 22 UTC
Vėjas 6 kt iš Pietų/Pietryčių

TAF: OESH 021100Z 0212/0318 10012KT CAVOK BECMG 0220/0222 16006KT

Orai ataskaitas ir orų prognozės (METAR, TAF).

turimą stotys yra geltonos ir raudonos taškus žemėlapyje.

Perkelti pele per norėdami pamatyti stoties vardą.

Tada spustelėkite, norėdami matyti oro stebėjimo ir prognozės.

Norėdami pakeisti žemėlapį: spustelėkite ant žalios mygtukų su juodo kryžiaus žemyn,; žalią mygtuką su brūkšneliu, jei norite nutolinti; arba žalių rodyklių gretimoms žemėlapius.


METAR-TAF: